Time;durP1;ratioP1;P1;durP2;ratioP2;P2;SDS_P1;SDS_P2;PMS_P1;PMS_P2;Temp;Humidity;BMP_temperature;BMP_pressure;BME280_temperature;BME280_humidity;BME280_pressure;Samples;Min_cycle;Max_cycle;Signal;HPM_P1;HPM_P2
2024/02/02 00:00:18;;;;;;;5.47;0.83;;;;;;;5.68;96.47;102148.19;5074991;28;20433;-67
2024/02/02 00:02:45;;;;;;;1.73;0.60;;;;;;;5.62;96.68;102148.25;5075364;28;20469;-68
2024/02/02 00:05:12;;;;;;;2.07;0.60;;;;;;;5.64;96.90;102148.88;5075313;28;20487;-68
2024/02/02 00:07:40;;;;;;;2.37;1.00;;;;;;;5.66;96.72;102152.97;5075517;28;20448;-68
2024/02/02 00:10:07;;;;;;;1.57;0.30;;;;;;;5.64;97.02;102155.06;5074845;28;20449;-68
2024/02/02 00:12:35;;;;;;;1.60;0.40;;;;;;;5.59;97.63;102148.75;5075075;28;20579;-67
2024/02/02 00:15:02;;;;;;;4.10;0.90;;;;;;;5.59;97.51;102133.44;5074769;28;20442;-68
2024/02/02 00:17:30;;;;;;;1.70;0.50;;;;;;;5.53;97.87;102143.25;5075255;28;20477;-68
2024/02/02 00:19:57;;;;;;;1.80;0.70;;;;;;;5.54;98.08;102149.44;5075154;28;20437;-68
2024/02/02 00:22:24;;;;;;;1.60;0.40;;;;;;;5.66;97.80;102146.75;5075088;28;20454;-68
2024/02/02 00:24:52;;;;;;;4.07;0.47;;;;;;;5.68;97.72;102137.44;5075385;28;20802;-67
2024/02/02 00:27:19;;;;;;;2.33;0.83;;;;;;;5.74;97.46;102147.25;5075132;28;20792;-67
2024/02/02 00:29:46;;;;;;;1.83;0.90;;;;;;;5.83;96.95;102142.38;5074896;28;20438;-68
2024/02/02 00:32:13;;;;;;;3.60;1.00;;;;;;;5.80;97.13;102143.66;5074806;28;20485;-68
2024/02/02 00:34:40;;;;;;;1.60;0.40;;;;;;;5.77;97.38;102141.44;5074822;28;20951;-67
2024/02/02 00:37:07;;;;;;;1.60;0.40;;;;;;;5.79;96.97;102152.75;5074669;28;20481;-68
2024/02/02 00:39:34;;;;;;;3.30;0.77;;;;;;;5.80;97.25;102150.91;5075307;28;20559;-68
2024/02/02 00:42:02;;;;;;;12.83;1.97;;;;;;;5.81;97.09;102145.28;5073982;28;20541;-68
2024/02/02 00:44:29;;;;;;;3.23;0.70;;;;;;;5.84;96.92;102141.31;5074871;28;20481;-68
2024/02/02 00:46:55;;;;;;;2.50;0.73;;;;;;;5.86;96.62;102136.53;5074578;28;20428;-68
2024/02/02 00:49:24;;;;;;;2.77;0.83;;;;;;;5.91;96.26;102141.22;5074217;28;20470;-68
2024/02/02 00:51:51;;;;;;;3.00;0.53;;;;;;;5.91;96.07;102131.28;5074559;28;20465;-68
2024/02/02 00:54:18;;;;;;;4.60;0.63;;;;;;;5.83;96.98;102132.44;5074530;28;20484;-68
2024/02/02 00:56:44;;;;;;;2.20;1.03;;;;;;;5.91;96.39;102128.59;5074113;28;20484;-68
2024/02/02 00:59:12;;;;;;;1.60;0.43;;;;;;;5.92;95.79;102124.88;5074633;28;20433;-68
2024/02/02 01:01:40;;;;;;;1.80;0.60;;;;;;;5.89;96.24;102127.16;5074881;28;20461;-68
2024/02/02 01:04:07;;;;;;;1.70;0.50;;;;;;;5.76;97.08;102120.97;5074166;28;20433;-68
2024/02/02 01:06:33;;;;;;;1.77;0.57;;;;;;;5.80;96.68;102124.84;5074342;28;20433;-68
2024/02/02 01:09:00;;;;;;;1.60;0.40;;;;;;;5.76;97.34;102138.97;5074278;28;20853;-68
2024/02/02 01:11:27;;;;;;;1.60;0.40;;;;;;;5.75;97.30;102148.88;5074715;28;20446;-68
2024/02/02 01:13:54;;;;;;;1.60;0.43;;;;;;;5.76;97.60;102149.72;5073702;28;20441;-68
2024/02/02 01:16:22;;;;;;;1.83;0.63;;;;;;;5.75;97.83;102156.94;5074105;28;20821;-67
2024/02/02 01:18:49;;;;;;;2.20;0.87;;;;;;;5.81;97.40;102153.38;5074525;28;20442;-67
2024/02/02 01:21:16;;;;;;;1.87;0.50;;;;;;;5.79;97.81;102151.94;5074433;28;20445;-67
2024/02/02 01:23:42;;;;;;;2.37;1.30;;;;;;;5.86;97.47;102157.22;5073493;28;20496;-68
2024/02/02 01:26:09;;;;;;;2.30;1.30;;;;;;;5.87;97.47;102148.09;5073879;28;20487;-68
2024/02/02 01:28:36;;;;;;;1.60;0.40;;;;;;;5.83;97.78;102153.94;5073460;28;20437;-68
2024/02/02 01:31:03;;;;;;;2.43;0.70;;;;;;;5.92;97.48;102150.94;5073529;28;20469;-67
2024/02/02 01:33:31;;;;;;;1.70;0.50;;;;;;;5.89;97.64;102159.44;5073636;28;20461;-67
2024/02/02 01:35:58;;;;;;;2.40;0.70;;;;;;;5.94;96.78;102157.75;5073634;28;21062;-67
2024/02/02 01:38:24;;;;;;;2.90;0.97;;;;;;;5.90;97.55;102163.78;5073680;28;21001;-68
2024/02/02 01:40:51;;;;;;;2.07;0.60;;;;;;;5.87;97.44;102158.88;5073622;28;20851;-68
2024/02/02 01:43:18;;;;;;;1.60;0.40;;;;;;;5.88;97.78;102155.94;5073511;28;20527;-68
2024/02/02 01:45:45;;;;;;;2.77;1.00;;;;;;;5.90;97.72;102159.22;5073339;28;20532;-68
2024/02/02 01:48:11;;;;;;;3.50;1.87;;;;;;;5.96;97.35;102152.94;5073498;28;20520;-68
2024/02/02 01:50:39;;;;;;;2.10;0.77;;;;;;;5.96;96.85;102152.13;5073169;28;20477;-68
2024/02/02 01:53:06;;;;;;;1.90;0.50;;;;;;;5.91;97.31;102149.28;5073592;28;20458;-67
2024/02/02 01:55:33;;;;;;;3.90;0.80;;;;;;;5.89;97.25;102152.22;5073055;28;20778;-67
2024/02/02 01:58:00;;;;;;;1.80;0.63;;;;;;;5.88;96.97;102144.38;5073182;28;20481;-67
2024/02/02 02:00:27;;;;;;;1.70;0.57;;;;;;;5.87;97.44;102143.53;5073044;28;20924;-67
2024/02/02 02:02:54;;;;;;;5.30;1.70;;;;;;;5.83;97.63;102150.44;5072969;28;20548;-67
2024/02/02 02:05:21;;;;;;;2.20;0.93;;;;;;;5.88;97.40;102155.13;5073370;28;20488;-67
2024/02/02 02:07:49;;;;;;;2.63;0.80;;;;;;;5.88;97.28;102153.25;5072970;28;20438;-68
2024/02/02 02:10:17;;;;;;;1.70;0.50;;;;;;;5.88;97.05;102163.19;5073393;28;20469;-68
2024/02/02 02:12:44;;;;;;;3.60;1.00;;;;;;;5.85;97.33;102156.41;5073570;28;20942;-68
2024/02/02 02:15:11;;;;;;;2.23;1.00;;;;;;;5.88;96.83;102149.75;5073231;28;20476;-67
2024/02/02 02:17:38;;;;;;;1.80;0.60;;;;;;;5.82;97.63;102144.25;5073085;28;20480;-67
2024/02/02 02:20:10;;;;;;;2.13;0.60;;;;;;;5.87;97.33;102137.34;5073223;28;20440;-67
2024/02/02 02:22:38;;;;;;;1.87;0.60;;;;;;;5.85;97.26;102144.84;5073173;28;20500;-67
2024/02/02 02:25:06;;;;;;;2.20;0.50;;;;;;;5.89;97.26;102146.84;5073420;28;20459;-67
2024/02/02 02:27:33;;;;;;;7.93;1.60;;;;;;;5.87;97.06;102148.09;5073324;28;20517;-67
2024/02/02 02:30:00;;;;;;;7.17;0.50;;;;;;;5.82;97.28;102136.16;5073367;28;20433;-67
2024/02/02 02:32:27;;;;;;;2.63;0.70;;;;;;;5.81;97.88;102128.34;5072618;28;20968;-67
2024/02/02 02:34:54;;;;;;;2.20;1.07;;;;;;;5.85;97.45;102120.66;5072996;28;20437;-67
2024/02/02 02:37:20;;;;;;;5.63;1.17;;;;;;;5.79;98.08;102123.19;5072828;28;21081;-68
2024/02/02 02:39:49;;;;;;;1.80;0.60;;;;;;;5.82;97.38;102122.72;5072949;28;20441;-68
2024/02/02 02:42:16;;;;;;;4.33;1.63;;;;;;;5.81;97.47;102120.28;5072579;28;20544;-68
2024/02/02 02:44:43;;;;;;;1.60;0.57;;;;;;;5.73;98.19;102113.38;5072469;28;20495;-68
2024/02/02 02:47:11;;;;;;;1.50;0.30;;;;;;;5.76;97.83;102120.16;5072757;28;20904;-68
2024/02/02 02:49:37;;;;;;;1.73;0.67;;;;;;;5.76;97.74;102118.28;5072922;28;20452;-68
2024/02/02 02:52:05;;;;;;;3.40;1.70;;;;;;;5.83;97.42;102102.84;5072596;28;21076;-68
2024/02/02 02:54:32;;;;;;;19.03;1.50;;;;;;;5.79;97.82;102109.75;5073421;28;20456;-67
2024/02/02 02:57:00;;;;;;;1.70;0.60;;;;;;;5.86;97.80;102114.22;5072423;28;20898;-67
2024/02/02 02:59:28;;;;;;;2.30;0.93;;;;;;;5.87;97.86;102115.84;5072449;28;20807;-68
2024/02/02 03:01:55;;;;;;;2.77;0.70;;;;;;;5.86;98.03;102115.03;5072414;28;21030;-67
2024/02/02 03:04:22;;;;;;;2.83;0.57;;;;;;;5.87;97.70;102118.53;5073293;28;20516;-69
2024/02/02 03:06:49;;;;;;;2.23;0.83;;;;;;;5.84;98.05;102111.72;5076017;28;20790;-67
2024/02/02 03:09:16;;;;;;;2.43;0.93;;;;;;;5.83;98.33;102112.78;5075919;28;20437;-67
2024/02/02 03:11:43;;;;;;;1.50;0.40;;;;;;;5.77;98.60;102111.03;5076580;28;20453;-68
2024/02/02 03:14:11;;;;;;;3.83;1.27;;;;;;;5.80;98.68;102118.66;5075931;28;20543;-68
2024/02/02 03:16:38;;;;;;;1.90;0.60;;;;;;;5.81;98.76;102113.03;5076395;28;20491;-68
2024/02/02 03:19:05;;;;;;;2.10;0.80;;;;;;;5.80;99.05;102122.16;5075896;28;20479;-68
2024/02/02 03:21:34;;;;;;;6.83;1.70;;;;;;;5.77;98.87;102133.38;5075827;28;20448;-68
2024/02/02 03:24:00;;;;;;;3.27;0.60;;;;;;;5.73;99.26;102129.50;5076379;28;20445;-68
2024/02/02 03:26:27;;;;;;;2.23;0.70;;;;;;;5.78;99.52;102142.25;5076335;28;20441;-68
2024/02/02 03:28:54;;;;;;;1.60;0.60;;;;;;;5.79;99.27;102141.19;5075802;28;20859;-68
2024/02/02 03:31:22;;;;;;;1.70;0.50;;;;;;;5.78;99.07;102134.19;5075912;28;20441;-68
2024/02/02 03:33:49;;;;;;;2.90;1.00;;;;;;;5.76;99.62;102125.53;5075572;28;20488;-68
2024/02/02 03:36:15;;;;;;;3.50;1.20;;;;;;;5.77;99.73;102127.16;5075728;28;20430;-68
2024/02/02 03:38:42;;;;;;;2.93;1.00;;;;;;;5.78;99.42;102124.25;5075800;28;20444;-68
2024/02/02 03:41:09;;;;;;;2.53;1.10;;;;;;;5.77;99.26;102125.28;5075843;28;20473;-68
2024/02/02 03:43:35;;;;;;;3.23;1.80;;;;;;;5.79;99.20;102123.19;5075234;28;20507;-68
2024/02/02 03:46:02;;;;;;;2.00;1.07;;;;;;;5.74;99.43;102115.00;5075768;28;20526;-68
2024/02/02 03:48:30;;;;;;;2.73;1.33;;;;;;;5.77;99.35;102116.41;5075577;28;20438;-68
2024/02/02 03:50:57;;;;;;;2.93;0.63;;;;;;;5.74;99.30;102114.19;5075872;28;20510;-68
2024/02/02 03:53:24;;;;;;;2.10;0.80;;;;;;;5.72;99.58;102117.09;5075402;28;21044;-68
2024/02/02 03:55:50;;;;;;;3.80;1.50;;;;;;;5.74;99.29;102117.69;5075395;28;20445;-67
2024/02/02 03:58:17;;;;;;;3.50;1.07;;;;;;;5.76;99.09;102109.41;5075042;28;20568;-67
2024/02/02 04:00:44;;;;;;;2.17;0.83;;;;;;;5.73;99.17;102116.06;5075294;28;20480;-67
2024/02/02 04:03:11;;;;;;;2.57;1.13;;;;;;;5.77;99.01;102122.59;5075530;28;20461;-67
2024/02/02 04:05:41;;;;;;;2.00;0.90;;;;;;;5.64;99.60;102125.50;5075154;28;20437;-67
2024/02/02 04:08:08;;;;;;;6.03;2.00;;;;;;;5.59;100.00;102133.44;5074909;28;20453;-67
2024/02/02 04:10:34;;;;;;;3.80;0.80;;;;;;;5.67;99.68;102116.16;5075085;28;20469;-67
2024/02/02 04:13:02;;;;;;;2.43;0.60;;;;;;;5.56;100.00;102121.25;5075305;28;20453;-68
2024/02/02 04:15:28;;;;;;;4.17;1.60;;;;;;;5.58;99.81;102118.38;5074278;28;20495;-67
2024/02/02 04:17:55;;;;;;;1.80;0.77;;;;;;;5.60;99.85;102113.56;5074410;28;20575;-67
2024/02/02 04:20:22;;;;;;;2.20;0.87;;;;;;;5.50;100.00;102124.06;5075082;28;20497;-67
2024/02/02 04:22:50;;;;;;;1.90;0.80;;;;;;;5.55;99.85;102118.81;5074785;28;20461;-67
2024/02/02 04:25:17;;;;;;;3.10;1.40;;;;;;;5.59;99.38;102114.63;5074856;28;20490;-67
2024/02/02 04:27:44;;;;;;;3.30;1.07;;;;;;;5.54;99.56;102111.81;5074822;28;20917;-67
2024/02/02 04:30:12;;;;;;;2.23;0.90;;;;;;;5.55;99.06;102108.88;5075189;28;20468;-67
2024/02/02 04:32:38;;;;;;;2.33;1.00;;;;;;;5.43;100.00;102113.41;5074568;28;20465;-67
2024/02/02 04:35:06;;;;;;;2.17;0.93;;;;;;;5.49;100.00;102114.34;5074366;28;20469;-67
2024/02/02 04:37:32;;;;;;;2.07;0.60;;;;;;;5.50;99.51;102114.13;5074138;28;20485;-67
2024/02/02 04:40:00;;;;;;;4.83;2.10;;;;;;;5.46;100.00;102120.19;5074617;28;20524;-67
2024/02/02 04:42:27;;;;;;;1.90;0.80;;;;;;;5.45;100.00;102105.94;5074695;28;20540;-67
2024/02/02 04:44:54;;;;;;;3.40;1.53;;;;;;;5.44;100.00;102112.34;5074425;28;20507;-67
2024/02/02 04:47:22;;;;;;;2.30;1.53;;;;;;;5.50;100.00;102110.63;5074862;28;20441;-68
2024/02/02 04:49:49;;;;;;;6.03;1.80;;;;;;;5.56;99.74;102101.63;5074424;28;20491;-67
2024/02/02 04:52:15;;;;;;;1.93;0.73;;;;;;;5.50;99.67;102097.19;5074288;28;21041;-67
2024/02/02 04:54:42;;;;;;;2.87;1.23;;;;;;;5.44;100.00;102092.72;5074375;28;20494;-67
2024/02/02 04:57:10;;;;;;;2.67;1.00;;;;;;;5.52;99.60;102097.75;5074094;28;20564;-67
2024/02/02 04:59:37;;;;;;;1.90;0.80;;;;;;;5.46;99.80;102082.56;5073816;28;20437;-67
2024/02/02 05:02:04;;;;;;;2.17;0.90;;;;;;;5.45;100.00;102081.75;5074431;28;20461;-67
2024/02/02 05:04:31;;;;;;;1.93;0.73;;;;;;;5.49;99.93;102088.31;5074114;28;20921;-67
2024/02/02 05:06:57;;;;;;;2.13;0.97;;;;;;;5.52;99.14;102087.00;5074287;28;20445;-67
2024/02/02 05:09:24;;;;;;;2.77;1.17;;;;;;;5.49;99.67;102082.09;5074525;28;20438;-67
2024/02/02 05:11:51;;;;;;;1.87;0.70;;;;;;;5.47;99.75;102078.81;5074019;28;20457;-67
2024/02/02 05:14:19;;;;;;;2.57;0.70;;;;;;;5.42;100.00;102076.81;5074290;28;20445;-68
2024/02/02 05:16:46;;;;;;;2.10;0.70;;;;;;;5.42;100.00;102066.09;5073729;28;20441;-67
2024/02/02 05:19:13;;;;;;;2.40;1.10;;;;;;;5.49;99.89;102065.97;5074101;28;20437;-67
2024/02/02 05:21:39;;;;;;;4.93;1.47;;;;;;;5.50;99.63;102062.25;5073987;28;20457;-67
2024/02/02 05:24:06;;;;;;;2.63;1.03;;;;;;;5.51;99.60;102059.31;5073769;28;20448;-67
2024/02/02 05:26:33;;;;;;;2.90;0.90;;;;;;;5.56;99.09;102048.69;5074341;28;20503;-67
2024/02/02 05:29:00;;;;;;;6.33;0.87;;;;;;;5.50;99.21;102051.50;5073825;28;20974;-67
2024/02/02 05:31:28;;;;;;;2.73;0.97;;;;;;;5.54;99.45;102041.94;5073818;28;20490;-67
2024/02/02 05:33:54;;;;;;;3.37;1.17;;;;;;;5.57;99.56;102036.06;5074186;28;20479;-67
2024/02/02 05:36:21;;;;;;;2.40;1.00;;;;;;;5.59;99.14;102036.69;5073984;28;20948;-67
2024/02/02 05:38:48;;;;;;;2.70;1.00;;;;;;;5.53;98.95;102040.28;5074465;28;20500;-67
2024/02/02 05:41:15;;;;;;;1.70;0.60;;;;;;;5.57;98.94;102044.13;5074333;28;20491;-67
2024/02/02 05:43:41;;;;;;;3.10;1.40;;;;;;;5.56;98.81;102035.25;5073652;28;20433;-67
2024/02/02 05:46:08;;;;;;;2.20;0.90;;;;;;;5.56;98.96;102035.25;5086509;22;20496;-68
2024/02/02 05:48:36;;;;;;;2.20;0.90;;;;;;;5.56;99.36;102031.75;5073218;28;20437;-67
2024/02/02 05:51:03;;;;;;;1.70;0.50;;;;;;;5.63;98.94;102028.97;5073876;28;20441;-68
2024/02/02 05:53:29;;;;;;;2.03;0.97;;;;;;;5.62;98.79;102028.13;5073184;28;20540;-68
2024/02/02 05:55:56;;;;;;;2.13;1.00;;;;;;;5.61;98.91;102031.88;5073388;28;20499;-68
2024/02/02 05:58:23;;;;;;;4.33;1.37;;;;;;;5.63;98.82;102027.09;5072972;28;21054;-68
2024/02/02 06:00:49;;;;;;;4.53;1.30;;;;;;;5.64;99.01;102035.97;5073363;28;20469;-69
2024/02/02 06:03:16;;;;;;;3.30;1.37;;;;;;;5.65;99.45;102030.38;5073280;28;20884;-68
2024/02/02 06:05:44;;;;;;;4.83;1.00;;;;;;;5.64;99.55;102034.09;5073320;28;20491;-68
2024/02/02 06:08:13;;;;;;;2.00;0.87;;;;;;;5.64;99.60;102044.84;5073272;28;20441;-68
2024/02/02 06:10:40;;;;;;;2.37;1.13;;;;;;;5.63;100.00;102048.59;5073243;28;20441;-68
2024/02/02 06:13:08;;;;;;;2.73;0.90;;;;;;;5.68;99.69;102047.91;5073066;28;21062;-68
2024/02/02 06:15:35;;;;;;;2.57;0.90;;;;;;;5.72;99.68;102046.41;5073229;28;20806;-69
2024/02/02 06:18:02;;;;;;;1.93;0.60;;;;;;;5.76;99.67;102051.06;5072830;28;20492;-68
2024/02/02 06:20:28;;;;;;;3.13;1.27;;;;;;;5.81;99.48;102045.00;5073165;28;20469;-68
2024/02/02 06:22:56;;;;;;;2.33;0.87;;;;;;;5.85;99.54;102053.44;5072957;28;20991;-68
2024/02/02 06:25:23;;;;;;;2.30;1.03;;;;;;;5.93;98.90;102053.09;5073291;28;20442;-68
2024/02/02 06:27:50;;;;;;;2.00;0.87;;;;;;;5.92;98.85;102059.53;5073174;28;20852;-68
2024/02/02 06:30:17;;;;;;;6.53;1.20;;;;;;;5.92;98.59;102054.16;5072975;28;20525;-68
2024/02/02 06:32:47;;;;;;;2.87;0.80;;;;;;;5.91;99.08;102047.09;5073447;28;20493;-68
2024/02/02 06:35:13;;;;;;;6.13;2.33;;;;;;;5.94;98.75;102042.13;5073100;28;20939;-68
2024/02/02 06:37:40;;;;;;;2.27;0.93;;;;;;;5.93;99.07;102034.25;5072938;28;20571;-68
2024/02/02 06:40:10;;;;;;;1.80;0.60;;;;;;;5.97;99.10;102035.44;5074806;28;20441;-68
2024/02/02 06:42:37;;;;;;;5.87;0.80;;;;;;;5.97;98.49;102044.31;5076798;28;20507;-68
2024/02/02 06:45:05;;;;;;;1.90;0.70;;;;;;;5.96;98.89;102052.63;5077183;28;20457;-68
2024/02/02 06:47:31;;;;;;;1.67;0.47;;;;;;;6.02;98.01;102043.59;5076951;28;20491;-68
2024/02/02 06:49:58;;;;;;;4.83;0.83;;;;;;;5.96;98.41;102042.69;5076868;28;20520;-68
2024/02/02 06:52:25;;;;;;;2.13;0.80;;;;;;;6.01;98.13;102039.28;5076670;28;20563;-68
2024/02/02 06:54:52;;;;;;;1.70;0.50;;;;;;;6.07;98.00;102039.19;5076954;28;20441;-68
2024/02/02 06:57:21;;;;;;;3.00;1.27;;;;;;;6.04;97.57;102028.06;5076125;28;21126;-68
2024/02/02 06:59:49;;;;;;;2.10;0.70;;;;;;;5.97;97.83;102014.72;5076130;28;20437;-68
2024/02/02 07:02:19;;;;;;;2.63;0.93;;;;;;;6.00;97.51;102000.81;5076429;28;20453;-68
2024/02/02 07:04:46;;;;;;;3.50;1.07;;;;;;;5.98;97.76;101996.75;5076467;28;20531;-68
2024/02/02 07:07:13;;;;;;;4.83;1.83;;;;;;;5.93;97.93;102002.84;5076002;28;20848;-67
2024/02/02 07:09:40;;;;;;;1.70;0.50;;;;;;;5.91;97.81;102002.19;5075979;28;20987;-67
2024/02/02 07:12:10;;;;;;;3.40;0.63;;;;;;;5.90;97.67;101997.06;5076147;28;20450;-68
2024/02/02 07:14:45;;;;;;;1.90;0.93;;;;;;;5.88;97.81;101999.16;5076525;28;20476;-67
2024/02/02 07:17:34;;;;;;;14.53;1.80;;;;;;;5.88;97.82;101993.78;5076387;28;20429;-68
2024/02/02 07:20:03;;;;;;;2.20;1.07;;;;;;;5.92;97.62;101985.03;5076157;28;20870;-68
2024/02/02 07:22:37;;;;;;;1.93;0.57;;;;;;;5.88;98.07;101983.84;5075956;28;20472;-68
2024/02/02 07:25:06;;;;;;;4.60;2.00;;;;;;;5.88;98.27;101983.03;5075943;28;20937;-68
2024/02/02 07:27:55;;;;;;;1.93;0.77;;;;;;;5.93;97.96;101975.09;5075932;28;20913;-68
2024/02/02 07:30:54;;;;;;;3.40;1.40;;;;;;;5.93;97.84;101981.31;5069819;28;20446;-70
2024/02/02 07:33:27;;;;;;;2.17;0.93;;;;;;;5.97;97.55;101981.66;5075764;28;20805;-69
2024/02/02 07:35:57;;;;;;;3.70;1.27;;;;;;;5.96;97.71;101974.63;5075783;28;20433;-68
2024/02/02 07:38:53;;;;;;;2.63;0.93;;;;;;;5.89;97.29;101964.00;5076338;28;20532;-68
2024/02/02 07:41:22;;;;;;;2.00;0.50;;;;;;;5.94;97.03;101966.00;5075957;28;20430;-67
2024/02/02 07:43:49;;;;;;;3.90;1.33;;;;;;;5.91;97.09;101961.06;5075705;28;20441;-67
2024/02/02 07:46:17;;;;;;;3.03;0.83;;;;;;;5.86;97.59;101964.44;5076447;28;20445;-68
2024/02/02 07:48:46;;;;;;;3.00;1.37;;;;;;;5.87;97.70;101966.06;5075567;28;20436;-68
2024/02/02 07:51:13;;;;;;;2.07;0.80;;;;;;;5.87;97.85;101959.88;5075285;28;20957;-68
2024/02/02 07:53:40;;;;;;;2.57;0.90;;;;;;;5.92;97.60;101957.34;5075232;28;21030;-68
2024/02/02 07:56:08;;;;;;;1.73;0.53;;;;;;;5.99;97.76;101964.22;5075520;28;20451;-68
2024/02/02 07:58:34;;;;;;;4.13;0.80;;;;;;;6.13;97.33;101963.97;5075268;28;20477;-68
2024/02/02 08:01:01;;;;;;;2.57;0.93;;;;;;;6.15;96.19;101959.97;5075699;28;20433;-68
2024/02/02 08:03:29;;;;;;;1.90;0.77;;;;;;;6.15;96.37;101959.97;5075582;28;20518;-68
2024/02/02 08:05:56;;;;;;;2.40;1.10;;;;;;;6.19;96.13;101963.84;5075286;28;20453;-68
2024/02/02 08:08:23;;;;;;;3.40;0.80;;;;;;;6.23;95.50;101959.63;5075304;28;20487;-68
2024/02/02 08:10:49;;;;;;;13.00;1.00;;;;;;;6.26;95.14;101951.06;5075524;28;20483;-68
2024/02/02 08:13:18;;;;;;;3.80;1.17;;;;;;;6.26;94.91;101951.06;5075058;28;20511;-68
2024/02/02 08:15:45;;;;;;;2.87;0.90;;;;;;;6.28;94.89;101948.94;5075447;28;20430;-68
2024/02/02 08:18:12;;;;;;;2.27;0.90;;;;;;;6.30;94.43;101938.78;5074871;28;20535;-68
2024/02/02 08:20:40;;;;;;;4.47;1.97;;;;;;;6.27;94.32;101933.06;5075293;28;20445;-68
2024/02/02 08:23:07;;;;;;;2.10;0.70;;;;;;;6.23;95.11;101939.97;5075101;28;20457;-68
2024/02/02 08:25:34;;;;;;;2.40;1.00;;;;;;;6.28;94.79;101943.56;5075209;28;20442;-68
2024/02/02 08:28:01;;;;;;;4.07;1.33;;;;;;;6.32;94.77;101941.22;5074876;28;20437;-68
2024/02/02 08:30:28;;;;;;;1.90;0.70;;;;;;;6.35;94.55;101934.56;5074951;28;20490;-67
2024/02/02 08:32:55;;;;;;;2.73;1.20;;;;;;;6.34;94.51;101941.00;5074751;28;20466;-67
2024/02/02 08:35:22;;;;;;;5.07;1.60;;;;;;;6.40;93.94;101938.16;5074997;28;20854;-67
2024/02/02 08:37:51;;;;;;;2.73;1.00;;;;;;;6.41;94.27;101928.22;5074506;28;20433;-67
2024/02/02 08:40:27;;;;;;;2.63;1.17;;;;;;;6.53;93.50;101934.38;5074702;28;20486;-67
2024/02/02 08:42:54;;;;;;;3.60;1.30;;;;;;;6.65;92.13;101937.03;5074199;28;20465;-67
2024/02/02 08:46:00;;;;;;;5.07;1.57;;;;;;;6.70;92.38;101937.94;5074082;28;20511;-67
2024/02/02 08:48:33;;;;;;;3.70;1.20;;;;;;;6.79;91.83;101924.88;5074493;28;20448;-67
2024/02/02 08:51:01;;;;;;;2.30;1.00;;;;;;;6.81;91.08;101907.41;5074641;28;20430;-67
2024/02/02 08:53:30;;;;;;;2.93;1.33;;;;;;;6.91;90.53;101911.38;5074254;28;20461;-67
2024/02/02 08:56:00;;;;;;;6.63;1.73;;;;;;;6.92;89.62;101921.06;5074933;28;20442;-67
2024/02/02 08:58:31;;;;;;;2.77;1.33;;;;;;;6.97;89.50;101915.75;5074378;28;20480;-67
2024/02/02 09:00:59;;;;;;;5.53;2.23;;;;;;;7.06;89.31;101904.34;5074511;28;20434;-67
2024/02/02 09:03:40;;;;;;;2.33;1.10;;;;;;;7.12;89.79;101896.34;5073106;28;20463;-67
2024/02/02 09:06:17;;;;;;;10.30;2.07;;;;;;;7.25;87.26;101891.41;5074139;28;20441;-67
2024/02/02 09:08:46;;;;;;;3.00;1.40;;;;;;;7.30;86.49;101891.53;5074071;28;20759;-66
2024/02/02 09:11:23;;;;;;;3.53;1.43;;;;;;;7.21;87.05;101889.47;5073693;28;20438;-67
2024/02/02 09:14:06;;;;;;;5.43;2.53;;;;;;;7.21;87.21;101887.59;5074373;28;20434;-66
2024/02/02 09:16:42;;;;;;;2.67;1.37;;;;;;;7.21;87.34;101890.28;5074377;28;20422;-67
2024/02/02 09:19:26;;;;;;;3.67;1.93;;;;;;;7.15;87.69;101887.75;5073788;28;20548;-67
2024/02/02 09:21:54;;;;;;;5.43;1.93;;;;;;;7.12;88.39;101896.34;5074148;28;20461;-66
2024/02/02 09:24:35;;;;;;;4.53;1.10;;;;;;;7.12;88.63;101897.13;5074126;28;20531;-70
2024/02/02 09:27:02;;;;;;;2.60;1.20;;;;;;;7.06;90.67;101906.22;5073698;28;20476;-67
2024/02/02 09:29:30;;;;;;;3.50;1.40;;;;;;;6.96;91.51;101909.56;5073942;28;20918;-68
2024/02/02 09:31:57;;;;;;;2.00;0.80;;;;;;;6.88;93.18;101879.53;5073883;28;20937;-67
2024/02/02 09:34:25;;;;;;;6.80;1.83;;;;;;;6.77;94.76;101889.28;5073263;28;20491;-67
2024/02/02 09:36:53;;;;;;;4.43;1.80;;;;;;;6.74;95.51;101874.44;5073119;28;20524;-67
2024/02/02 09:39:50;;;;;;;7.80;2.40;;;;;;;6.75;93.69;101859.91;5073332;28;20481;-67
2024/02/02 09:42:36;;;;;;;4.20;1.70;;;;;;;6.69;94.19;101839.38;5073624;28;20889;-66
2024/02/02 09:45:08;;;;;;;4.27;1.27;;;;;;;6.63;95.45;101842.19;5073229;28;20498;-65
2024/02/02 09:47:54;;;;;;;2.67;1.10;;;;;;;6.69;95.14;101833.16;5073433;28;20426;-66
2024/02/02 09:50:33;;;;;;;5.00;2.23;;;;;;;6.66;96.44;101841.72;5073385;28;20475;-68
2024/02/02 09:53:28;;;;;;;2.03;1.10;;;;;;;6.70;95.67;101841.00;5073384;28;20507;-67
2024/02/02 09:56:05;;;;;;;2.60;0.90;;;;;;;6.70;96.11;101857.16;5073490;28;20513;-67
2024/02/02 09:58:39;;;;;;;4.23;1.27;;;;;;;6.78;94.33;101867.53;5073843;28;20519;-68
2024/02/02 10:01:22;;;;;;;2.37;1.33;;;;;;;6.83;94.21;101856.03;5074212;28;20418;-68
2024/02/02 10:04:00;;;;;;;2.40;1.20;;;;;;;6.86;94.59;101860.09;5073676;28;20422;-68
2024/02/02 10:06:34;;;;;;;2.17;0.93;;;;;;;6.98;94.08;101860.81;5073458;28;20834;-68
2024/02/02 10:09:14;;;;;;;3.73;1.60;;;;;;;7.04;93.57;101862.56;5073420;28;20414;-68
2024/02/02 10:12:08;;;;;;;4.13;1.50;;;;;;;7.11;93.19;101855.09;5073495;28;20518;-67
2024/02/02 10:15:03;;;;;;;2.83;1.17;;;;;;;7.18;92.14;101847.69;5076111;28;20417;-68
2024/02/02 10:17:40;;;;;;;5.03;1.53;;;;;;;7.16;92.35;101838.19;5077763;28;20421;-67
2024/02/02 10:20:34;;;;;;;4.47;1.57;;;;;;;7.21;92.29;101816.72;5077784;28;20465;-68
2024/02/02 10:23:32;;;;;;;4.50;1.23;;;;;;;7.25;91.00;101812.47;5074267;28;20469;-68
2024/02/02 10:26:21;;;;;;;2.70;1.07;;;;;;;7.29;90.44;101795.53;5076709;28;20437;-68
2024/02/02 10:29:02;;;;;;;2.37;0.80;;;;;;;7.32;89.61;101792.34;5077066;28;20843;-68
2024/02/02 10:31:45;;;;;;;4.03;1.70;;;;;;;7.35;88.76;101799.16;5076771;28;20960;-68
2024/02/02 10:34:31;;;;;;;2.13;0.70;;;;;;;7.47;88.64;101799.81;5077484;28;20501;-68
2024/02/02 10:37:12;;;;;;;2.60;1.10;;;;;;;7.55;88.49;101798.56;5076976;28;20417;-68
2024/02/02 10:39:54;;;;;;;3.00;0.90;;;;;;;7.70;86.19;101798.78;5077117;28;20469;-68
2024/02/02 10:42:34;;;;;;;2.60;0.80;;;;;;;7.66;86.55;101796.81;5076788;28;20449;-68
2024/02/02 10:45:13;;;;;;;2.80;1.90;;;;;;;7.74;86.22;101786.41;5076647;28;20449;-68
2024/02/02 10:48:01;;;;;;;5.10;1.00;;;;;;;7.80;86.17;101796.19;5076746;28;20967;-68
2024/02/02 10:50:39;;;;;;;1.93;0.67;;;;;;;7.91;85.60;101788.22;5076683;28;20463;-68
2024/02/02 10:53:15;;;;;;;3.30;1.40;;;;;;;8.00;84.05;101784.78;5076137;28;20461;-68
2024/02/02 10:55:54;;;;;;;4.23;1.03;;;;;;;7.98;83.55;101786.13;5076523;28;20429;-68
2024/02/02 10:58:33;;;;;;;1.90;0.70;;;;;;;8.00;83.97;101781.28;5076582;28;20487;-68
2024/02/02 11:01:07;;;;;;;1.60;0.40;;;;;;;8.06;83.53;101777.59;5076456;28;20417;-68
2024/02/02 11:03:38;;;;;;;2.40;1.03;;;;;;;8.01;83.21;101772.97;5076435;28;20457;-67
2024/02/02 11:06:19;;;;;;;2.87;0.80;;;;;;;8.00;83.11;101767.78;5076637;28;20421;-68
2024/02/02 11:08:54;;;;;;;3.00;0.70;;;;;;;8.00;82.91;101757.00;5076445;28;20429;-68
2024/02/02 11:11:24;;;;;;;1.73;0.60;;;;;;;8.01;82.52;101761.31;5076381;28;20429;-69
2024/02/02 11:13:59;;;;;;;1.90;0.63;;;;;;;8.03;81.89;101740.31;5076531;28;20509;-68
2024/02/02 11:16:47;;;;;;;2.67;1.13;;;;;;;8.06;81.18;101747.91;5076170;28;20890;-68
2024/02/02 11:19:26;;;;;;;2.00;0.67;;;;;;;8.04;82.35;101733.84;5076133;28;20523;-68
2024/02/02 11:22:11;;;;;;;2.67;1.00;;;;;;;8.01;82.17;101731.66;5075747;28;20461;-68
2024/02/02 11:24:50;;;;;;;3.00;1.20;;;;;;;8.07;81.60;101731.44;5075822;28;20475;-68
2024/02/02 11:27:24;;;;;;;2.40;0.67;;;;;;;8.14;80.66;101725.84;5076296;28;20432;-68
2024/02/02 11:30:01;;;;;;;2.40;0.90;;;;;;;8.18;81.14;101712.66;5076741;28;20804;-68
2024/02/02 11:32:48;;;;;;;1.90;0.70;;;;;;;8.26;80.51;101709.47;5075970;28;20492;-68
2024/02/02 11:35:21;;;;;;;2.77;1.03;;;;;;;8.29;80.76;101719.78;5075523;28;20421;-68
2024/02/02 11:37:57;;;;;;;3.43;1.07;;;;;;;8.35;79.97;101697.13;5075500;28;20426;-69
2024/02/02 11:40:26;;;;;;;2.10;0.70;;;;;;;8.31;79.96;101696.81;5075710;28;21057;-68
2024/02/02 11:42:56;;;;;;;8.70;0.80;;;;;;;8.38;79.75;101683.16;5076312;28;20472;-68
2024/02/02 11:45:27;;;;;;;3.67;1.43;;;;;;;8.34;80.26;101684.72;5075542;28;20498;-68